createdAt,value
2017-11-29T00:00:08.491Z,74.23
2017-11-29T00:02:37.877Z,74.18
2017-11-29T00:05:06.201Z,74.29
2017-11-29T00:07:34.565Z,73.51
2017-11-29T00:10:02.945Z,74.11
2017-11-29T00:12:31.315Z,75.28
2017-11-29T00:15:00.447Z,75.29
2017-11-29T00:17:28.791Z,75.05
2017-11-29T00:19:57.222Z,75.25
2017-11-29T00:22:25.544Z,76.24
2017-11-29T00:24:54.418Z,76.67
2017-11-29T00:27:23.501Z,77.08
2017-11-29T00:29:52.164Z,78.12
2017-11-29T00:32:20.538Z,76.99
2017-11-29T00:34:48.891Z,77.16
2017-11-29T00:37:17.223Z,76.69
2017-11-29T00:39:45.599Z,77.42
2017-11-29T00:42:13.978Z,77.67
2017-11-29T00:44:43.029Z,78.12
2017-11-29T00:47:11.791Z,77.74
2017-11-29T00:49:41.266Z,78.11
2017-11-29T00:52:09.662Z,77.96
2017-11-29T00:54:38.790Z,76.64
2017-11-29T00:57:07.116Z,77.09
2017-11-29T00:59:35.432Z,77.94
2017-11-29T01:02:03.800Z,77.57
2017-11-29T01:04:32.905Z,77.54
2017-11-29T01:07:01.252Z,76.83
2017-11-29T01:09:29.647Z,76.26
2017-11-29T01:11:57.975Z,77.65
2017-11-29T01:14:26.319Z,78.16
2017-11-29T01:16:54.657Z,78.94
2017-11-29T01:19:23.014Z,79.94
2017-11-29T01:21:51.386Z,78.99
2017-11-29T01:24:19.751Z,78.91
2017-11-29T01:26:48.071Z,78.54
2017-11-29T01:29:16.415Z,78.11
2017-11-29T01:31:44.859Z,78.48
2017-11-29T01:34:13.218Z,78.88
2017-11-29T01:36:41.541Z,78.35
2017-11-29T01:39:09.929Z,78.90
2017-11-29T01:41:38.278Z,78.75
2017-11-29T01:44:07.390Z,79.40
2017-11-29T01:46:35.748Z,78.92
2017-11-29T01:49:04.841Z,79.57
2017-11-29T01:51:33.199Z,79.24
2017-11-29T01:54:01.746Z,79.23
2017-11-29T01:56:30.077Z,79.88
2017-11-29T01:58:58.385Z,80.22
2017-11-29T02:01:26.731Z,79.31
2017-11-29T02:03:55.049Z,78.75
2017-11-29T02:06:28.036Z,79.08
2017-11-29T02:08:56.745Z,79.40
2017-11-29T02:11:25.065Z,78.88
2017-11-29T02:13:54.373Z,78.14
2017-11-29T02:16:22.717Z,78.57
2017-11-29T02:18:51.062Z,77.89
2017-11-29T02:21:19.439Z,79.74
2017-11-29T02:23:47.769Z,80.11
2017-11-29T02:26:16.810Z,79.35
2017-11-29T02:28:45.180Z,80.14
2017-11-29T02:31:14.280Z,80.76
2017-11-29T02:33:42.629Z,80.86
2017-11-29T02:36:11.852Z,79.74
2017-11-29T02:38:40.948Z,78.83
2017-11-29T02:41:26.977Z,79.24
2017-11-29T02:43:55.321Z,80.08
2017-11-29T02:46:23.673Z,80.23
2017-11-29T02:48:52.009Z,80.61
2017-11-29T02:51:21.128Z,80.08
2017-11-29T02:53:49.484Z,79.80
2017-11-29T02:56:17.917Z,79.82
2017-11-29T02:58:46.257Z,79.15
2017-11-29T03:01:14.583Z,78.78
2017-11-29T03:03:43.186Z,78.36
2017-11-29T03:06:12.422Z,79.02
2017-11-29T03:08:41.673Z,79.37
2017-11-29T03:11:10.025Z,80.62
2017-11-29T03:13:38.369Z,80.17
2017-11-29T03:16:06.715Z,79.59
2017-11-29T03:18:35.603Z,79.14
2017-11-29T03:21:04.632Z,79.06
2017-11-29T03:23:32.976Z,79.53
2017-11-29T03:26:01.646Z,79.73
2017-11-29T03:28:30.758Z,79.50
2017-11-29T03:30:59.883Z,79.99
2017-11-29T03:33:28.277Z,79.55
2017-11-29T03:35:56.614Z,78.88
2017-11-29T03:38:25.335Z,78.96
2017-11-29T03:40:53.868Z,78.94
2017-11-29T03:43:22.942Z,78.59
2017-11-29T03:45:51.298Z,78.77
2017-11-29T03:48:19.663Z,78.73
2017-11-29T03:50:48.008Z,79.19
2017-11-29T03:53:17.108Z,78.97
2017-11-29T03:55:45.537Z,78.92
2017-11-29T03:58:15.466Z,79.05
2017-11-29T04:00:43.783Z,78.39
2017-11-29T04:03:12.204Z,78.72
2017-11-29T04:05:41.289Z,79.32
2017-11-29T04:08:09.601Z,80.06
2017-11-29T04:10:37.958Z,79.89
2017-11-29T04:13:06.259Z,79.10
2017-11-29T04:15:34.606Z,78.85
2017-11-29T04:18:02.943Z,78.03
2017-11-29T04:20:32.072Z,78.54
2017-11-29T04:23:00.387Z,78.38
2017-11-29T04:25:29.077Z,78.43
2017-11-29T04:27:57.465Z,78.93
2017-11-29T04:30:26.547Z,79.51
2017-11-29T04:32:54.895Z,79.67
2017-11-29T04:35:23.195Z,80.06
2017-11-29T04:37:51.502Z,80.46
2017-11-29T04:40:19.870Z,79.95
2017-11-29T04:42:48.228Z,79.19
2017-11-29T04:45:16.575Z,79.03
2017-11-29T04:47:44.970Z,78.76
2017-11-29T04:50:13.363Z,78.40
2017-11-29T04:52:41.670Z,78.39
2017-11-29T04:55:10.016Z,78.68
2017-11-29T04:57:38.345Z,78.69
2017-11-29T05:00:07.462Z,79.51
2017-11-29T05:02:35.792Z,79.53
2017-11-29T05:05:04.142Z,79.87
2017-11-29T05:07:32.472Z,78.76
2017-11-29T05:10:01.762Z,78.75
2017-11-29T05:12:30.131Z,79.21
2017-11-29T05:14:58.469Z,79.01
2017-11-29T05:17:26.877Z,80.15
2017-11-29T05:19:55.209Z,78.99
2017-11-29T05:22:23.525Z,79.48
2017-11-29T05:24:51.866Z,79.17
2017-11-29T05:27:20.213Z,78.64
2017-11-29T05:29:49.343Z,78.79
2017-11-29T05:32:17.769Z,78.43
2017-11-29T05:34:46.144Z,79.02
2017-11-29T05:37:14.486Z,78.09
2017-11-29T05:39:42.838Z,78.58
2017-11-29T05:42:11.944Z,79.95
2017-11-29T05:44:41.055Z,79.71
2017-11-29T05:47:09.425Z,79.65
2017-11-29T05:49:38.502Z,79.47
2017-11-29T05:52:07.617Z,79.96
2017-11-29T05:54:36.063Z,79.69
2017-11-29T05:57:04.401Z,79.10
2017-11-29T05:59:32.731Z,79.00
2017-11-29T06:02:01.857Z,79.30
2017-11-29T06:04:30.211Z,79.28
2017-11-29T06:06:59.305Z,78.75
2017-11-29T06:09:28.429Z,78.18
2017-11-29T06:11:56.745Z,77.26
2017-11-29T06:14:25.093Z,77.48
2017-11-29T06:16:53.632Z,77.60
2017-11-29T06:19:21.952Z,78.34
2017-11-29T06:21:50.257Z,78.70
2017-11-29T06:24:18.588Z,77.83
2017-11-29T06:26:48.307Z,78.91
2017-11-29T06:29:16.658Z,78.40
2017-11-29T06:31:45.056Z,78.04
2017-11-29T06:34:15.055Z,77.61
2017-11-29T06:36:43.375Z,77.29
2017-11-29T06:39:12.050Z,78.17
2017-11-29T06:41:40.404Z,77.75
2017-11-29T06:44:09.529Z,77.17
2017-11-29T06:46:37.873Z,78.23
2017-11-29T06:49:06.195Z,77.67
2017-11-29T06:51:34.521Z,78.07
2017-11-29T06:54:03.652Z,77.28
2017-11-29T06:56:31.956Z,78.16
2017-11-29T06:59:01.057Z,76.92
2017-11-29T07:01:29.779Z,76.62
2017-11-29T07:03:58.129Z,75.64
2017-11-29T07:06:26.469Z,75.54
2017-11-29T07:08:54.858Z,75.94
2017-11-29T07:11:23.198Z,76.43
2017-11-29T07:13:51.564Z,77.16
2017-11-29T07:16:19.913Z,77.42
2017-11-29T07:18:48.262Z,77.38
2017-11-29T07:21:17.365Z,77.98
2017-11-29T07:23:45.808Z,78.47
2017-11-29T07:26:14.138Z,78.05
2017-11-29T07:28:42.460Z,77.34
2017-11-29T07:31:10.833Z,77.27
2017-11-29T07:33:39.370Z,77.93
2017-11-29T07:36:07.689Z,77.73
2017-11-29T07:38:36.041Z,77.71
2017-11-29T07:41:04.400Z,78.23
2017-11-29T07:43:32.763Z,78.88
2017-11-29T07:46:01.457Z,78.35
2017-11-29T07:48:29.834Z,77.05
2017-11-29T07:50:58.183Z,76.05
2017-11-29T07:53:26.545Z,78.19
2017-11-29T07:55:55.646Z,77.90
2017-11-29T07:58:24.010Z,77.28
2017-11-29T08:00:52.409Z,77.81
2017-11-29T08:03:20.884Z,77.25
2017-11-29T08:05:50.090Z,76.78
2017-11-29T08:08:18.809Z,77.17
2017-11-29T08:10:47.144Z,76.84
2017-11-29T08:13:15.481Z,77.65
2017-11-29T08:15:44.401Z,76.39
2017-11-29T08:18:13.092Z,76.88
2017-11-29T08:20:41.412Z,74.99
2017-11-29T08:23:09.764Z,76.60
2017-11-29T08:25:39.001Z,76.61
2017-11-29T08:28:07.341Z,77.46
2017-11-29T08:30:36.517Z,78.83
2017-11-29T08:33:04.882Z,77.63
2017-11-29T08:35:33.228Z,78.24
2017-11-29T08:38:02.396Z,77.82
2017-11-29T08:40:30.775Z,77.76
2017-11-29T08:42:59.153Z,77.92
2017-11-29T08:45:28.399Z,78.76
2017-11-29T08:47:57.481Z,78.25
2017-11-29T08:50:27.443Z,77.26
2017-11-29T08:52:56.200Z,77.42
2017-11-29T08:55:24.518Z,77.76
2017-11-29T08:57:52.834Z,77.84
2017-11-29T09:00:21.930Z,78.02
2017-11-29T09:02:51.034Z,77.19
2017-11-29T09:05:20.151Z,77.19
2017-11-29T09:07:48.529Z,77.00
2017-11-29T09:10:16.905Z,78.27
2017-11-29T09:12:45.238Z,77.44
2017-11-29T09:15:14.223Z,77.12
2017-11-29T09:17:42.549Z,77.51
2017-11-29T09:20:10.876Z,77.32
2017-11-29T09:22:39.241Z,76.04
2017-11-29T09:25:08.052Z,77.15
2017-11-29T09:27:36.362Z,76.55
2017-11-29T09:30:05.530Z,77.42
2017-11-29T09:32:33.863Z,76.97
2017-11-29T09:35:02.205Z,77.51
2017-11-29T09:37:30.744Z,76.67
2017-11-29T09:39:59.719Z,76.79
2017-11-29T09:42:28.067Z,77.95
2017-11-29T09:44:56.452Z,78.39
2017-11-29T09:47:25.544Z,77.54
2017-11-29T09:49:54.650Z,77.08
2017-11-29T09:52:23.768Z,78.25
2017-11-29T09:54:52.103Z,77.34
2017-11-29T09:57:20.456Z,77.22
2017-11-29T09:59:49.167Z,76.92
2017-11-29T10:02:17.548Z,75.89
2017-11-29T10:04:46.067Z,76.84
2017-11-29T10:07:14.463Z,76.15
2017-11-29T10:09:42.816Z,75.04
2017-11-29T10:12:12.167Z,75.02
2017-11-29T10:14:40.817Z,75.56
2017-11-29T10:17:09.224Z,75.84
2017-11-29T10:19:37.616Z,77.17
2017-11-29T10:22:06.287Z,77.51
2017-11-29T10:24:34.661Z,76.09
2017-11-29T10:27:03.045Z,76.25
2017-11-29T10:29:31.378Z,76.22
2017-11-29T10:32:00.525Z,76.66
2017-11-29T10:34:28.861Z,77.38
2017-11-29T10:36:57.244Z,76.40
2017-11-29T10:39:25.577Z,75.92
2017-11-29T10:41:53.941Z,75.40
2017-11-29T10:44:22.350Z,74.93
2017-11-29T10:46:50.730Z,76.01
2017-11-29T10:49:19.074Z,74.81
2017-11-29T10:51:47.623Z,74.50
2017-11-29T10:54:16.091Z,75.88
2017-11-29T10:56:45.207Z,74.71
2017-11-29T10:59:13.566Z,73.49
2017-11-29T11:01:42.677Z,72.81
2017-11-29T11:04:11.027Z,73.82
2017-11-29T11:06:39.738Z,72.77
2017-11-29T11:09:08.102Z,73.24
2017-11-29T11:11:37.205Z,71.98
2017-11-29T11:14:06.308Z,71.18
2017-11-29T11:16:35.404Z,72.35
2017-11-29T11:19:04.505Z,71.98
2017-11-29T11:21:33.628Z,71.36
2017-11-29T11:24:01.977Z,70.85
2017-11-29T11:26:30.381Z,72.44
2017-11-29T11:28:59.003Z,72.92
2017-11-29T11:31:27.328Z,74.55
2017-11-29T11:33:55.719Z,75.63
2017-11-29T11:36:24.107Z,75.36
2017-11-29T11:38:53.480Z,75.37
2017-11-29T11:41:21.853Z,75.39
2017-11-29T11:43:51.046Z,74.58
2017-11-29T11:46:20.189Z,73.14
2017-11-29T11:48:48.503Z,73.24
2017-11-29T11:51:17.330Z,73.83
2017-11-29T11:53:45.680Z,73.67
2017-11-29T11:56:14.017Z,72.69
2017-11-29T11:58:42.374Z,70.31
2017-11-29T12:01:10.857Z,68.98
2017-11-29T12:03:39.234Z,68.60
2017-11-29T12:06:07.924Z,71.15
2017-11-29T12:08:36.305Z,71.67
2017-11-29T12:11:04.640Z,71.96
2017-11-29T12:13:34.058Z,70.15
2017-11-29T12:16:02.406Z,69.21
2017-11-29T12:18:30.726Z,70.24
2017-11-29T12:20:59.080Z,70.65
2017-11-29T12:23:27.412Z,69.93
2017-11-29T12:25:55.735Z,70.58
2017-11-29T12:28:24.097Z,69.72
2017-11-29T12:30:52.429Z,70.08
2017-11-29T12:33:20.766Z,70.74
2017-11-29T12:35:50.030Z,70.60
2017-11-29T12:38:18.387Z,70.41
2017-11-29T12:40:46.779Z,70.55
2017-11-29T12:43:15.167Z,71.66
2017-11-29T12:45:43.515Z,71.78
2017-11-29T12:48:29.421Z,71.62
2017-11-29T12:51:18.323Z,72.20
2017-11-29T12:53:46.900Z,72.58
2017-11-29T12:56:15.237Z,71.95
2017-11-29T12:58:43.620Z,71.59
2017-11-29T13:01:11.984Z,70.51
2017-11-29T13:03:40.376Z,70.80
2017-11-29T13:06:08.709Z,70.89
2017-11-29T13:08:37.104Z,70.91
2017-11-29T13:11:06.238Z,71.57
2017-11-29T13:13:35.674Z,73.21
2017-11-29T13:16:04.472Z,73.25
2017-11-29T13:18:33.018Z,71.52
2017-11-29T13:21:01.434Z,71.53
2017-11-29T13:23:29.939Z,70.31
2017-11-29T13:25:58.286Z,69.70
2017-11-29T13:28:26.597Z,71.43
2017-11-29T13:30:55.258Z,72.93
2017-11-29T13:33:23.632Z,72.74
2017-11-29T13:35:51.952Z,73.06
2017-11-29T13:38:21.055Z,73.13
2017-11-29T13:40:49.496Z,72.92
2017-11-29T13:43:17.912Z,72.99
2017-11-29T13:45:46.254Z,72.60
2017-11-29T13:48:14.578Z,72.54
2017-11-29T13:50:42.908Z,72.26
2017-11-29T13:53:11.285Z,71.04
2017-11-29T13:55:39.661Z,71.71
2017-11-29T13:58:08.021Z,70.84
2017-11-29T14:00:36.543Z,70.56
2017-11-29T14:03:05.633Z,70.70
2017-11-29T14:05:33.984Z,71.07
2017-11-29T14:08:02.366Z,71.25
2017-11-29T14:10:30.693Z,70.47
2017-11-29T14:12:59.785Z,71.52
2017-11-29T14:15:28.884Z,72.22
2017-11-29T14:17:57.262Z,71.73
2017-11-29T14:20:25.627Z,71.42
2017-11-29T14:22:54.904Z,70.81
2017-11-29T14:25:23.201Z,69.78
2017-11-29T14:27:51.608Z,71.10
2017-11-29T14:30:20.028Z,70.74
2017-11-29T14:32:49.126Z,70.42
2017-11-29T14:35:17.612Z,70.44
2017-11-29T14:37:45.997Z,70.99
2017-11-29T14:40:14.382Z,70.40
2017-11-29T18:33:38.646Z,72.92
2017-11-29T18:36:07.100Z,71.61
2017-11-29T18:38:36.211Z,71.20
2017-11-29T18:41:04.569Z,71.02
2017-11-29T18:43:33.650Z,71.78
2017-11-29T18:46:02.103Z,71.28
2017-11-29T18:48:31.467Z,70.76
2017-11-29T18:50:59.929Z,70.64
2017-11-29T18:53:29.072Z,70.64
2017-11-29T18:55:57.602Z,70.67
2017-11-29T18:58:26.707Z,71.11
2017-11-29T19:00:55.027Z,71.91
2017-11-29T19:03:23.403Z,72.00
2017-11-29T19:05:51.756Z,71.38
2017-11-29T19:08:20.133Z,71.71
2017-11-29T19:10:48.498Z,72.52
2017-11-29T19:13:16.814Z,73.14
2017-11-29T19:15:45.150Z,73.51
2017-11-29T19:18:14.414Z,73.87
2017-11-29T19:20:42.804Z,73.53
2017-11-29T19:23:11.167Z,72.76
2017-11-29T19:25:39.537Z,73.12
2017-11-29T19:28:07.878Z,73.06
2017-11-29T19:30:37.119Z,72.71
2017-11-29T19:33:05.545Z,71.49
2017-11-29T19:35:34.671Z,71.37
2017-11-29T19:38:03.086Z,70.87
2017-11-29T19:40:31.557Z,71.37
2017-11-29T19:42:59.953Z,70.94
2017-11-29T19:45:28.372Z,72.14
2017-11-29T19:47:57.488Z,71.93
2017-11-29T19:50:25.847Z,71.19
2017-11-29T19:52:54.223Z,70.87
2017-11-29T19:55:23.343Z,71.08
2017-11-29T19:57:51.705Z,71.15
2017-11-29T20:00:20.093Z,70.75
2017-11-29T20:02:49.306Z,70.42
2017-11-29T20:05:17.695Z,71.09
2017-11-29T20:07:46.037Z,70.33
2017-11-29T20:10:14.407Z,70.16
2017-11-29T20:12:43.503Z,69.60
2017-11-29T20:15:13.460Z,69.63
2017-11-29T20:17:41.819Z,70.50
2017-11-29T20:20:10.228Z,71.02
2017-11-29T20:22:38.602Z,71.71
2017-11-29T20:25:07.328Z,71.07
2017-11-29T20:27:35.648Z,70.62
2017-11-29T20:30:04.745Z,70.28
2017-11-29T20:32:33.228Z,70.42
2017-11-29T20:35:01.591Z,70.50
2017-11-29T20:37:30.679Z,71.13
2017-11-29T20:39:59.063Z,70.64
2017-11-29T20:42:27.402Z,70.80
2017-11-29T20:44:55.737Z,71.77
2017-11-29T20:47:24.264Z,71.23
2017-11-29T20:49:52.610Z,71.10
2017-11-29T20:52:38.763Z,71.83
2017-11-29T20:55:07.151Z,71.70
2017-11-29T20:57:36.254Z,71.73
2017-11-29T21:00:05.445Z,71.52
2017-11-29T21:02:33.763Z,71.65
2017-11-29T21:05:02.120Z,71.17
2017-11-29T21:07:30.543Z,70.74
2017-11-29T21:09:58.894Z,70.83
2017-11-29T21:12:27.237Z,71.93
2017-11-29T21:14:55.634Z,71.65
2017-11-29T21:17:24.738Z,73.74
2017-11-29T21:19:53.157Z,73.59
2017-11-29T21:22:21.525Z,74.04
2017-11-29T21:24:49.946Z,73.59
2017-11-29T21:27:18.434Z,72.62
2017-11-29T21:29:47.039Z,73.95
2017-11-29T21:32:15.386Z,74.56
2017-11-29T21:34:43.727Z,74.68
2017-11-29T21:37:12.112Z,74.05
2017-11-29T21:39:40.483Z,74.42
2017-11-29T21:42:08.835Z,74.09
2017-11-29T21:44:37.173Z,74.92
2017-11-29T21:47:05.485Z,73.90
2017-11-29T21:49:33.869Z,74.05
2017-11-29T21:52:02.524Z,72.66
2017-11-29T21:54:30.887Z,72.69
2017-11-29T21:56:59.253Z,73.55
2017-11-29T21:59:27.602Z,74.20
2017-11-29T22:01:55.942Z,73.62
2017-11-29T22:04:24.254Z,73.19
2017-11-29T22:06:52.592Z,72.84
2017-11-29T22:09:20.912Z,72.52
2017-11-29T22:11:49.232Z,72.14
2017-11-29T22:14:17.913Z,72.33
2017-11-29T22:16:46.219Z,72.40
2017-11-29T22:19:14.533Z,72.67
2017-11-29T22:21:42.903Z,73.40
2017-11-29T22:24:11.242Z,74.68
2017-11-29T22:26:39.572Z,74.17
2017-11-29T22:29:07.948Z,73.69
2017-11-29T22:31:36.294Z,73.68
2017-11-29T22:34:04.619Z,73.37
2017-11-29T22:36:33.377Z,73.42
2017-11-29T22:39:01.701Z,74.11
2017-11-29T22:41:30.035Z,74.90
2017-11-29T22:43:59.167Z,74.36
2017-11-29T22:46:27.502Z,74.08
2017-11-29T22:48:56.587Z,74.08
2017-11-29T22:51:25.066Z,73.72
2017-11-29T22:53:53.395Z,73.48
2017-11-29T22:56:21.758Z,72.70
2017-11-29T22:58:50.192Z,73.19
2017-11-29T23:01:18.549Z,73.52
2017-11-29T23:03:46.907Z,73.00
2017-11-29T23:06:15.273Z,72.92
2017-11-29T23:08:43.628Z,73.07
2017-11-29T23:11:11.933Z,73.31
2017-11-29T23:13:40.265Z,73.17
2017-11-29T23:16:08.905Z,73.10
2017-11-29T23:18:37.246Z,73.67
2017-11-29T23:21:05.701Z,73.85
2017-11-29T23:23:34.017Z,73.94
2017-11-29T23:26:02.377Z,73.87
2017-11-29T23:28:30.730Z,73.72
2017-11-29T23:30:59.075Z,73.32
2017-11-29T23:33:27.389Z,73.11
2017-11-29T23:35:55.792Z,73.06
2017-11-29T23:38:24.108Z,74.07
2017-11-29T23:40:53.210Z,74.47
2017-11-29T23:43:21.784Z,74.31
2017-11-29T23:45:50.121Z,73.93
2017-11-29T23:48:18.477Z,74.93
2017-11-29T23:50:46.827Z,75.49
2017-11-29T23:53:15.164Z,75.62
2017-11-29T23:55:43.476Z,74.65
2017-11-29T23:58:11.856Z,75.34
